Time;durP1;ratioP1;P1;durP2;ratioP2;P2;SDS_P1;SDS_P2;PMS_P1;PMS_P2;Temp;Humidity;BMP_temperature;BMP_pressure;BME280_temperature;BME280_humidity;BME280_pressure;Samples;Min_cycle;Max_cycle;Signal;HPM_P1;HPM_P2
2023/04/20 00:01:39;;;;;;;;;20.75;19.50;;;;;;;;5248258;28;8815;-69
2023/04/20 00:04:29;;;;;;;;;22.60;22.60;;;;;;;;5236920;28;10974;-69
2023/04/20 00:07:00;;;;;;;;;20.80;19.80;;;;;;;;5229193;28;8840;-69
2023/04/20 00:09:31;;;;;;;;;27.00;25.25;;;;;;;;5228622;28;8789;-69
2023/04/20 00:12:20;;;;;;;;;38.00;34.40;;;;;;;;5228429;28;9637;-69
2023/04/20 00:14:52;;;;;;;;;27.25;26.75;;;;;;;;5227322;28;8785;-68
2023/04/20 00:17:23;;;;;;;;;28.00;27.80;;;;;;;;5228276;28;8782;-68
2023/04/20 00:19:54;;;;;;;;;29.75;29.25;;;;;;;;5228002;28;8798;-68
2023/04/20 00:22:43;;;;;;;;;29.40;28.80;;;;;;;;5228797;28;10343;-68
2023/04/20 00:25:14;;;;;;;;;27.75;27.75;;;;;;;;5246852;28;8806;-68
2023/04/20 00:27:45;;;;;;;;;24.00;23.75;;;;;;;;5248654;28;11364;-68
2023/04/20 00:30:16;;;;;;;;;23.00;22.40;;;;;;;;5230848;28;11555;-68
2023/04/20 00:33:05;;;;;;;;;25.00;25.00;;;;;;;;5249077;28;9404;-68
2023/04/20 00:35:36;;;;;;;;;30.00;27.00;;;;;;;;5230842;28;9553;-70
2023/04/20 00:38:29;;;;;;;;;20.20;20.20;;;;;;;;5240117;28;9489;-70
2023/04/20 00:41:18;;;;;;;;;23.40;23.40;;;;;;;;5228245;28;9587;-70
2023/04/20 00:43:50;;;;;;;;;28.00;26.25;;;;;;;;5211106;28;8955;-71
2023/04/20 00:46:40;;;;;;;;;37.60;33.40;;;;;;;;5226598;28;12346;-69
2023/04/20 00:49:11;;;;;;;;;35.60;35.60;;;;;;;;5209914;28;8864;-69
2023/04/20 00:51:42;;;;;;;;;34.40;34.40;;;;;;;;5228000;28;8797;-69
2023/04/20 00:54:13;;;;;;;;;29.40;29.00;;;;;;;;5226554;28;8806;-69
2023/04/20 00:56:47;;;;;;;;;33.80;33.80;;;;;;;;5209532;28;8796;-69
2023/04/20 00:59:18;;;;;;;;;66.00;52.20;;;;;;;;5227003;28;8794;-69
2023/04/20 01:01:50;;;;;;;;;83.40;60.40;;;;;;;;5245920;28;8767;-69
2023/04/20 01:04:20;;;;;;;;;78.80;61.40;;;;;;;;5227458;28;8821;-69
2023/04/20 01:06:51;;;;;;;;;72.00;58.25;;;;;;;;5209678;28;8809;-69
2023/04/20 01:09:24;;;;;;;;;49.00;43.20;;;;;;;;5225958;28;11553;-69
2023/04/20 01:11:55;;;;;;;;;39.00;37.40;;;;;;;;5227583;28;8807;-69
2023/04/20 01:14:26;;;;;;;;;51.80;45.80;;;;;;;;5226172;28;8948;-70
2023/04/20 01:16:57;;;;;;;;;65.80;55.00;;;;;;;;5210292;28;8822;-70
2023/04/20 01:19:28;;;;;;;;;81.75;59.50;;;;;;;;5226132;28;8782;-69
2023/04/20 01:21:59;;;;;;;;;84.50;64.00;;;;;;;;5231087;28;11470;-70
2023/04/20 01:24:30;;;;;;;;;78.40;59.00;;;;;;;;5229845;28;10407;-70
2023/04/20 01:27:03;;;;;;;;;71.20;55.00;;;;;;;;5246607;28;8885;-70
2023/04/20 01:29:34;;;;;;;;;66.60;55.20;;;;;;;;5230232;28;8849;-70
2023/04/20 01:32:06;;;;;;;;;56.60;48.20;;;;;;;;5212929;28;8779;-70
2023/04/20 01:34:37;;;;;;;;;57.80;48.20;;;;;;;;5246040;28;8869;-70
2023/04/20 01:37:08;;;;;;;;;65.25;54.75;;;;;;;;5208141;28;8836;-70
2023/04/20 01:39:39;;;;;;;;;66.60;55.60;;;;;;;;5226829;28;11524;-70
2023/04/20 01:42:10;;;;;;;;;59.80;49.60;;;;;;;;5237329;28;8807;-70
2023/04/20 01:44:41;;;;;;;;;59.50;49.75;;;;;;;;5229344;28;8841;-70
2023/04/20 01:47:33;;;;;;;;;58.80;49.80;;;;;;;;5246714;28;8815;-70
2023/04/20 01:50:04;;;;;;;;;43.60;40.80;;;;;;;;5246312;28;8783;-71
2023/04/20 01:52:35;;;;;;;;;54.80;42.20;;;;;;;;5246009;28;8771;-71
2023/04/20 01:55:07;;;;;;;;;42.60;37.60;;;;;;;;5245926;28;8817;-71
2023/04/20 01:57:38;;;;;;;;;37.20;35.60;;;;;;;;5230530;28;8789;-71
2023/04/20 02:00:10;;;;;;;;;32.20;31.40;;;;;;;;5208552;28;8879;-71
2023/04/20 02:02:47;;;;;;;;;28.40;28.40;;;;;;;;5225373;28;8806;-71
2023/04/20 02:05:19;;;;;;;;;29.00;27.80;;;;;;;;5224937;28;8829;-70
2023/04/20 02:07:50;;;;;;;;;30.20;28.20;;;;;;;;5225597;28;9534;-70
2023/04/20 02:10:21;;;;;;;;;21.00;21.00;;;;;;;;5226526;28;8802;-70
2023/04/20 02:12:52;;;;;;;;;32.00;30.80;;;;;;;;5226343;28;8805;-70
2023/04/20 02:15:24;;;;;;;;;26.20;25.60;;;;;;;;5226505;28;8815;-71
2023/04/20 02:17:56;;;;;;;;;27.60;27.00;;;;;;;;5245632;28;9513;-71
2023/04/20 02:20:27;;;;;;;;;30.60;30.60;;;;;;;;5228618;28;8806;-71
2023/04/20 02:22:58;;;;;;;;;26.60;26.60;;;;;;;;5228965;28;9660;-71
2023/04/20 02:25:29;;;;;;;;;25.75;25.75;;;;;;;;5246605;28;8811;-71
2023/04/20 02:28:00;;;;;;;;;21.75;21.50;;;;;;;;5212438;28;11497;-70
2023/04/20 02:30:30;;;;;;;;;22.75;22.75;;;;;;;;5243561;28;11570;-69
2023/04/20 02:33:01;;;;;;;;;31.00;31.00;;;;;;;;5229127;28;10459;-70
2023/04/20 02:35:33;;;;;;;;;28.60;28.60;;;;;;;;5226359;28;8817;-69
2023/04/20 02:38:04;;;;;;;;;29.00;27.60;;;;;;;;5210268;28;8797;-70
2023/04/20 02:40:35;;;;;;;;;27.60;27.60;;;;;;;;5232662;28;8774;-68
2023/04/20 02:43:06;;;;;;;;;38.20;35.80;;;;;;;;5240397;28;8812;-68
2023/04/20 02:45:38;;;;;;;;;31.80;31.80;;;;;;;;5232763;28;8845;-69
2023/04/20 02:48:10;;;;;;;;;30.60;28.60;;;;;;;;5231070;28;8817;-70
2023/04/20 02:50:42;;;;;;;;;38.80;36.00;;;;;;;;5244311;28;8807;-69
2023/04/20 02:53:22;;;;;;;;;29.00;28.60;;;;;;;;5255536;28;8794;-69
2023/04/20 02:56:12;;;;;;;;;39.20;36.80;;;;;;;;5247120;28;8797;-70
2023/04/20 02:58:57;;;;;;;;;42.00;38.60;;;;;;;;5234065;28;8813;-71
2023/04/20 03:01:34;;;;;;;;;29.40;29.40;;;;;;;;5241889;28;8896;-70
2023/04/20 03:04:25;;;;;;;;;31.60;28.40;;;;;;;;5243053;28;8821;-70
2023/04/20 03:07:14;;;;;;;;;24.00;24.00;;;;;;;;5243569;28;8786;-70
2023/04/20 03:09:46;;;;;;;;;24.40;24.40;;;;;;;;5246928;28;8921;-70
2023/04/20 03:12:30;;;;;;;;;16.80;15.60;;;;;;;;5263858;28;8795;-70
2023/04/20 03:15:17;;;;;;;;;14.80;14.00;;;;;;;;5252705;28;8817;-71
2023/04/20 03:18:03;;;;;;;;;20.60;20.20;;;;;;;;5247003;28;8898;-71
2023/04/20 03:20:34;;;;;;;;;15.20;15.20;;;;;;;;5242379;28;8966;-69
2023/04/20 03:23:05;;;;;;;;;26.40;22.60;;;;;;;;5226018;28;8823;-75
2023/04/20 03:25:37;;;;;;;;;43.00;37.40;;;;;;;;5228312;28;8825;-70
2023/04/20 03:28:16;;;;;;;;;53.20;42.00;;;;;;;;5224674;28;8816;-71
2023/04/20 03:30:47;;;;;;;;;55.00;46.80;;;;;;;;5226108;28;8805;-71
2023/04/20 03:33:20;;;;;;;;;57.60;47.60;;;;;;;;5224515;28;8785;-71
2023/04/20 03:35:51;;;;;;;;;54.75;45.25;;;;;;;;5245793;28;8871;-71
2023/04/20 03:38:21;;;;;;;;;56.50;46.50;;;;;;;;5264611;28;8771;-70
2023/04/20 03:40:52;;;;;;;;;47.80;41.40;;;;;;;;5250635;28;8779;-71
2023/04/20 03:43:24;;;;;;;;;42.00;38.60;;;;;;;;5268417;28;8783;-72
2023/04/20 03:45:55;;;;;;;;;49.60;41.00;;;;;;;;5266941;28;8827;-72
2023/04/20 03:48:26;;;;;;;;;54.20;46.00;;;;;;;;5257836;28;8783;-80
2023/04/20 03:50:58;;;;;;;;;68.80;55.60;;;;;;;;5232001;28;8782;-81
2023/04/20 03:53:30;;;;;;;;;55.00;45.60;;;;;;;;5217963;28;8848;-80
2023/04/20 03:56:03;;;;;;;;;74.40;60.00;;;;;;;;5254213;28;8785;-80
2023/04/20 03:58:35;;;;;;;;;74.60;57.60;;;;;;;;5237730;28;9482;-80
2023/04/20 04:01:14;;;;;;;;;75.80;59.00;;;;;;;;5224708;28;8768;-77
2023/04/20 04:03:51;;;;;;;;;62.00;51.60;;;;;;;;5224570;28;8823;-79
2023/04/20 04:06:23;;;;;;;;;169.33;134.00;;;;;;;;5223029;28;8879;-79
2023/04/20 04:08:55;;;;;;;;;41.60;37.00;;;;;;;;5247436;28;9585;-80
2023/04/20 04:11:31;;;;;;;;;26.60;26.40;;;;;;;;5217801;28;8777;-80
2023/04/20 04:14:04;;;;;;;;;21.00;20.80;;;;;;;;5243687;28;8790;-80
2023/04/20 04:16:36;;;;;;;;;22.60;22.00;;;;;;;;5218431;28;8809;-79
2023/04/20 04:19:08;;;;;;;;;4.40;4.40;;;;;;;;5238622;28;8773;-79
2023/04/20 04:21:40;;;;;;;;;12.60;12.60;;;;;;;;5219900;28;8812;-78
2023/04/20 04:24:13;;;;;;;;;16.80;16.40;;;;;;;;5202841;28;8817;-76
2023/04/20 04:27:04;;;;;;;;;13.20;13.20;;;;;;;;5222722;28;8813;-78
2023/04/20 04:29:40;;;;;;;;;14.00;13.80;;;;;;;;5220278;28;8790;-79
2023/04/20 04:32:15;;;;;;;;;14.00;14.00;;;;;;;;5219513;28;8786;-78
2023/04/20 04:34:47;;;;;;;;;18.60;18.60;;;;;;;;5217596;28;8849;-77
2023/04/20 04:37:20;;;;;;;;;19.00;19.00;;;;;;;;5250675;28;8806;-76
2023/04/20 04:39:57;;;;;;;;;21.80;21.80;;;;;;;;5250772;28;8809;-79
2023/04/20 04:42:36;;;;;;;;;16.00;16.00;;;;;;;;5236662;28;8867;-80
2023/04/20 04:45:12;;;;;;;;;14.00;14.00;;;;;;;;5234207;28;8790;-79
2023/04/20 04:47:46;;;;;;;;;14.40;14.40;;;;;;;;5251558;28;8783;-80
2023/04/20 04:50:20;;;;;;;;;13.60;9.80;;;;;;;;5257493;28;8799;-80
2023/04/20 04:52:52;;;;;;;;;16.80;16.00;;;;;;;;5233642;28;8802;-82
2023/04/20 04:55:24;;;;;;;;;17.60;17.60;;;;;;;;5238509;28;8806;-81
2023/04/20 04:58:16;;;;;;;;;10.00;9.20;;;;;;;;5240360;28;9517;-80
2023/04/20 05:00:47;;;;;;;;;13.80;13.80;;;;;;;;5238710;28;8786;-79
2023/04/20 05:03:19;;;;;;;;;15.00;15.00;;;;;;;;5255691;28;8802;-80
2023/04/20 05:05:51;;;;;;;;;15.00;15.00;;;;;;;;5254001;28;8839;-80
2023/04/20 05:08:23;;;;;;;;;16.00;15.40;;;;;;;;5236501;28;8866;-80
2023/04/20 05:10:56;;;;;;;;;14.60;14.60;;;;;;;;5228350;28;8773;-73
2023/04/20 05:13:27;;;;;;;;;13.60;13.60;;;;;;;;5252806;28;8784;-80
2023/04/20 05:15:59;;;;;;;;;15.40;15.20;;;;;;;;5230587;28;8795;-72
2023/04/20 05:18:30;;;;;;;;;13.25;13.25;;;;;;;;5268900;28;8833;-72
2023/04/20 05:21:01;;;;;;;;;12.40;12.40;;;;;;;;5250539;28;8826;-73
2023/04/20 05:23:32;;;;;;;;;25.40;25.40;;;;;;;;5266767;28;8787;-70
2023/04/20 05:26:03;;;;;;;;;12.80;12.60;;;;;;;;5268992;28;8833;-72
2023/04/20 05:28:34;;;;;;;;;12.00;12.00;;;;;;;;5252703;28;8794;-72
2023/04/20 05:31:06;;;;;;;;;10.20;10.20;;;;;;;;5246949;28;11466;-71
2023/04/20 05:33:38;;;;;;;;;12.60;11.40;;;;;;;;5211145;28;8948;-71
2023/04/20 05:36:09;;;;;;;;;12.80;12.20;;;;;;;;5225902;28;8967;-71
2023/04/20 05:38:40;;;;;;;;;22.40;22.20;;;;;;;;5226833;28;8766;-71
2023/04/20 05:41:11;;;;;;;;;16.80;15.60;;;;;;;;5209508;28;8878;-70
2023/04/20 05:43:42;;;;;;;;;9.50;9.50;;;;;;;;5225560;28;8806;-71
2023/04/20 05:46:13;;;;;;;;;9.50;9.50;;;;;;;;5234484;28;8783;-72
2023/04/20 05:48:44;;;;;;;;;8.50;8.50;;;;;;;;5246760;28;8795;-70
2023/04/20 05:51:14;;;;;;;;;7.75;7.75;;;;;;;;5208644;28;8806;-72
2023/04/20 05:53:45;;;;;;;;;5.75;5.75;;;;;;;;5209152;28;10285;-72
2023/04/20 05:56:17;;;;;;;;;7.00;7.00;;;;;;;;5209061;28;9726;-73
2023/04/20 05:58:48;;;;;;;;;9.50;9.25;;;;;;;;5225432;28;11067;-73
2023/04/20 06:01:38;;;;;;;;;8.00;8.00;;;;;;;;5225638;28;8814;-72
2023/04/20 06:04:29;;;;;;;;;11.00;11.00;;;;;;;;5226405;28;8825;-72
2023/04/20 06:07:00;;;;;;;;;9.40;9.20;;;;;;;;5240889;28;8817;-72
2023/04/20 06:09:31;;;;;;;;;7.67;7.33;;;;;;;;5245522;28;8806;-71
2023/04/20 06:12:02;;;;;;;;;8.33;8.33;;;;;;;;5244514;28;11475;-72
2023/04/20 06:14:33;;;;;;;;;8.00;8.00;;;;;;;;5246662;28;9514;-72
2023/04/20 06:17:04;;;;;;;;;6.50;6.50;;;;;;;;5245869;28;8797;-72
2023/04/20 06:19:35;;;;;;;;;12.50;11.75;;;;;;;;5245759;28;8916;-72
2023/04/20 06:22:07;;;;;;;;;9.25;9.25;;;;;;;;5245814;28;8791;-72
2023/04/20 06:24:41;;;;;;;;;9.00;9.00;;;;;;;;5245114;28;8834;-72
2023/04/20 06:27:12;;;;;;;;;7.25;7.25;;;;;;;;5244007;28;8795;-73
2023/04/20 06:29:43;;;;;;;;;5.00;5.00;;;;;;;;5228994;28;8803;-72
2023/04/20 06:32:14;;;;;;;;;10.33;10.33;;;;;;;;5215943;28;8825;-72
2023/04/20 06:34:46;;;;;;;;;5.25;5.25;;;;;;;;5224638;28;8821;-72
2023/04/20 06:37:18;;;;;;;;;6.25;6.25;;;;;;;;5224715;28;8803;-72
2023/04/20 06:39:55;;;;;;;;;6.50;6.50;;;;;;;;5208121;28;8786;-72
2023/04/20 06:42:26;;;;;;;;;10.75;10.50;;;;;;;;5191998;28;8785;-73
2023/04/20 06:44:57;;;;;;;;;6.67;6.67;;;;;;;;5207982;28;8894;-71
2023/04/20 06:47:30;;;;;;;;;9.33;9.33;;;;;;;;5208900;28;10608;-72
2023/04/20 06:50:20;;;;;;;;;8.50;8.50;;;;;;;;5224967;28;8782;-73
2023/04/20 06:52:51;;;;;;;;;7.00;7.00;;;;;;;;5225467;28;8818;-72
2023/04/20 06:55:22;;;;;;;;;10.25;9.25;;;;;;;;5224409;28;8793;-73
2023/04/20 06:58:11;;;;;;;;;10.50;10.50;;;;;;;;5210308;28;8810;-73
2023/04/20 07:00:43;;;;;;;;;11.75;11.75;;;;;;;;5225823;28;8769;-73
2023/04/20 07:03:14;;;;;;;;;8.50;8.50;;;;;;;;5209190;28;8797;-73
2023/04/20 07:05:44;;;;;;;;;8.00;8.00;;;;;;;;5224427;28;8857;-73
2023/04/20 07:08:15;;;;;;;;;14.40;14.40;;;;;;;;5207804;28;9504;-72
2023/04/20 07:10:46;;;;;;;;;2.67;2.67;;;;;;;;5224426;28;8896;-73
2023/04/20 07:13:17;;;;;;;;;8.00;8.00;;;;;;;;5207765;28;9749;-74
2023/04/20 07:15:49;;;;;;;;;7.50;7.50;;;;;;;;5242031;28;8806;-72
2023/04/20 07:18:20;;;;;;;;;7.50;7.50;;;;;;;;5244773;28;9474;-72
2023/04/20 07:20:51;;;;;;;;;9.50;9.50;;;;;;;;5245054;28;8787;-69
2023/04/20 07:23:22;;;;;;;;;10.00;10.00;;;;;;;;5243216;28;8907;-68
2023/04/20 07:25:53;;;;;;;;;7.00;7.00;;;;;;;;5244896;28;8806;-69
2023/04/20 07:28:24;;;;;;;;;6.50;6.50;;;;;;;;5244803;28;11337;-70
2023/04/20 07:30:55;;;;;;;;;6.00;6.00;;;;;;;;5228222;28;8787;-76
2023/04/20 07:33:28;;;;;;;;;5.50;5.50;;;;;;;;5228003;28;8914;-77
2023/04/20 07:36:00;;;;;;;;;4.25;4.25;;;;;;;;5227513;28;9557;-78
2023/04/20 07:38:32;;;;;;;;;5.50;5.50;;;;;;;;5211646;28;8839;-78
2023/04/20 07:41:07;;;;;;;;;7.75;7.75;;;;;;;;5212766;28;8920;-78
2023/04/20 07:43:39;;;;;;;;;6.75;6.75;;;;;;;;5230354;28;8775;-77
2023/04/20 07:46:18;;;;;;;;;4.75;4.75;;;;;;;;5230027;28;8834;-75
2023/04/20 07:49:10;;;;;;;;;8.00;7.25;;;;;;;;5232230;28;8906;-77
2023/04/20 07:51:44;;;;;;;;;5.75;5.75;;;;;;;;5213985;28;8815;-77
2023/04/20 07:54:16;;;;;;;;;6.00;6.00;;;;;;;;5246484;28;8798;-78
2023/04/20 07:56:48;;;;;;;;;7.25;7.00;;;;;;;;5203933;28;8810;-78
2023/04/20 07:59:21;;;;;;;;;6.75;6.75;;;;;;;;5192696;28;8824;-77
2023/04/20 08:01:57;;;;;;;;;8.75;8.75;;;;;;;;5201755;28;8903;-77
2023/04/20 08:04:28;;;;;;;;;4.50;4.50;;;;;;;;5242093;28;8849;-77
2023/04/20 08:07:18;;;;;;;;;6.00;5.00;;;;;;;;5223981;28;8821;-77
2023/04/20 08:09:49;;;;;;;;;3.25;3.25;;;;;;;;5209245;28;8845;-77
2023/04/20 08:12:20;;;;;;;;;5.00;5.00;;;;;;;;5208619;28;8824;-77
2023/04/20 08:14:51;;;;;;;;;1.50;1.50;;;;;;;;5209239;28;8789;-77
2023/04/20 08:17:22;;;;;;;;;5.67;5.67;;;;;;;;5225764;28;8821;-77
2023/04/20 08:20:11;;;;;;;;;7.00;7.00;;;;;;;;5211230;28;10645;-77
2023/04/20 08:22:42;;;;;;;;;5.00;5.00;;;;;;;;5207817;28;8837;-78
2023/04/20 08:25:13;;;;;;;;;5.50;5.50;;;;;;;;5223688;28;8843;-78
2023/04/20 08:27:44;;;;;;;;;5.50;5.50;;;;;;;;5210961;28;8868;-77
2023/04/20 08:30:15;;;;;;;;;4.25;4.25;;;;;;;;5195378;28;8845;-77
2023/04/20 08:32:46;;;;;;;;;3.25;3.25;;;;;;;;5198438;28;8842;-77
2023/04/20 08:35:17;;;;;;;;;4.00;4.00;;;;;;;;5203864;28;8841;-77
2023/04/20 08:37:48;;;;;;;;;3.75;3.75;;;;;;;;5226484;28;8867;-77
2023/04/20 08:40:38;;;;;;;;;9.75;9.75;;;;;;;;5226512;28;8797;-76
2023/04/20 08:43:10;;;;;;;;;5.00;5.00;;;;;;;;5226709;28;8813;-77
2023/04/20 08:46:03;;;;;;;;;7.75;7.75;;;;;;;;5224974;28;8980;-77
2023/04/20 08:48:54;;;;;;;;;6.00;6.00;;;;;;;;5212797;28;8839;-76
2023/04/20 08:51:45;;;;;;;;;5.75;5.75;;;;;;;;5240787;28;8859;-76
2023/04/20 08:54:35;;;;;;;;;4.50;4.50;;;;;;;;5212763;28;8814;-68
2023/04/20 08:57:06;;;;;;;;;3.75;3.50;;;;;;;;5226793;28;8782;-68
2023/04/20 08:59:37;;;;;;;;;4.75;4.75;;;;;;;;5244084;28;8830;-68
2023/04/20 09:02:12;;;;;;;;;5.75;5.75;;;;;;;;5214849;28;8790;-67
2023/04/20 09:04:47;;;;;;;;;4.00;4.00;;;;;;;;5227310;28;8806;-67
2023/04/20 09:07:19;;;;;;;;;3.75;3.75;;;;;;;;5231319;28;9497;-67
2023/04/20 09:09:54;;;;;;;;;4.75;4.75;;;;;;;;5226332;28;8766;-67
2023/04/20 09:12:26;;;;;;;;;2.50;2.50;;;;;;;;5209681;28;9493;-67
2023/04/20 09:14:57;;;;;;;;;4.50;4.00;;;;;;;;5227364;28;9492;-67
2023/04/20 09:17:32;;;;;;;;;1.50;1.50;;;;;;;;5226442;28;8784;-67
2023/04/20 09:20:04;;;;;;;;;4.00;4.00;;;;;;;;5209678;28;8793;-67
2023/04/20 09:22:36;;;;;;;;;7.00;7.00;;;;;;;;5226082;28;8793;-67
2023/04/20 09:25:26;;;;;;;;;8.50;8.50;;;;;;;;5242854;28;8816;-67
2023/04/20 09:28:16;;;;;;;;;8.25;8.25;;;;;;;;5245915;28;8791;-67
2023/04/20 09:30:48;;;;;;;;;3.25;3.25;;;;;;;;5247631;28;8779;-67
2023/04/20 09:33:19;;;;;;;;;4.25;4.25;;;;;;;;5246459;28;8897;-67
2023/04/20 09:36:09;;;;;;;;;3.00;3.00;;;;;;;;5247107;28;8914;-67
2023/04/20 09:38:40;;;;;;;;;4.75;4.75;;;;;;;;5247753;28;8786;-67
2023/04/20 09:41:11;;;;;;;;;3.67;3.67;;;;;;;;5242549;28;8809;-67
2023/04/20 09:43:43;;;;;;;;;5.50;5.50;;;;;;;;5225606;28;8983;-67
2023/04/20 09:46:14;;;;;;;;;5.00;5.00;;;;;;;;5208900;28;8809;-67
2023/04/20 09:49:08;;;;;;;;;4.75;4.75;;;;;;;;5225440;28;8778;-67
2023/04/20 09:51:44;;;;;;;;;5.00;5.00;;;;;;;;5225327;28;8774;-67
2023/04/20 09:54:14;;;;;;;;;7.50;6.50;;;;;;;;5225196;28;8932;-67
2023/04/20 09:56:45;;;;;;;;;11.67;11.67;;;;;;;;5227624;28;8924;-67
2023/04/20 09:59:18;;;;;;;;;4.00;4.00;;;;;;;;5226597;28;11051;-68
2023/04/20 10:01:49;;;;;;;;;3.75;3.75;;;;;;;;5209246;28;8827;-68
2023/04/20 10:04:20;;;;;;;;;4.50;4.50;;;;;;;;5225099;28;8887;-68
2023/04/20 10:07:09;;;;;;;;;3.75;3.75;;;;;;;;5226478;28;8798;-70
2023/04/20 10:09:40;;;;;;;;;6.00;6.00;;;;;;;;5225471;28;8809;-70
2023/04/20 10:12:13;;;;;;;;;5.00;5.00;;;;;;;;5225021;28;8793;-68
2023/04/20 10:14:53;;;;;;;;;3.75;3.75;;;;;;;;5192011;28;11458;-68
2023/04/20 10:17:31;;;;;;;;;3.00;3.00;;;;;;;;5193202;28;8794;-68
2023/04/20 10:20:03;;;;;;;;;6.00;6.00;;;;;;;;5245273;28;9640;-68
2023/04/20 10:22:34;;;;;;;;;4.50;4.50;;;;;;;;5224994;28;8798;-68
2023/04/20 10:25:13;;;;;;;;;3.67;3.67;;;;;;;;5225997;28;8894;-68
2023/04/20 10:28:07;;;;;;;;;6.75;6.75;;;;;;;;5210984;28;11396;-68
2023/04/20 10:30:48;;;;;;;;;7.00;7.00;;;;;;;;5225137;28;8778;-68
2023/04/20 10:33:19;;;;;;;;;6.25;6.25;;;;;;;;5240675;28;8929;-67
2023/04/20 10:35:53;;;;;;;;;3.75;3.75;;;;;;;;5207587;28;8913;-68
2023/04/20 10:38:28;;;;;;;;;5.00;5.00;;;;;;;;5244317;28;9510;-68
2023/04/20 10:41:06;;;;;;;;;4.25;4.25;;;;;;;;5236213;28;8775;-68
2023/04/20 10:43:42;;;;;;;;;1.50;1.50;;;;;;;;5225742;28;8778;-68
2023/04/20 10:46:14;;;;;;;;;4.50;4.50;;;;;;;;5224488;28;8980;-67
2023/04/20 10:48:48;;;;;;;;;3.75;3.75;;;;;;;;5225673;28;8789;-67
2023/04/20 10:51:20;;;;;;;;;0.00;0.00;;;;;;;;5225909;28;8828;-68
2023/04/20 10:54:00;;;;;;;;;6.00;6.00;;;;;;;;5207823;28;8871;-68
2023/04/20 10:56:47;;;;;;;;;5.75;5.75;;;;;;;;5234539;28;9549;-68
2023/04/20 10:59:20;;;;;;;;;4.75;4.75;;;;;;;;5223651;28;8797;-67
2023/04/20 11:01:51;;;;;;;;;3.00;3.00;;;;;;;;5207691;28;8790;-68
2023/04/20 11:04:32;;;;;;;;;6.00;6.00;;;;;;;;5207398;28;8964;-67
2023/04/20 11:07:06;;;;;;;;;4.00;4.00;;;;;;;;5207700;28;8786;-68
2023/04/20 11:09:56;;;;;;;;;4.00;4.00;;;;;;;;5232143;28;8780;-67
2023/04/20 11:12:36;;;;;;;;;4.00;4.00;;;;;;;;5250310;28;8780;-67
2023/04/20 11:15:08;;;;;;;;;5.50;5.50;;;;;;;;5250065;28;8767;-67
2023/04/20 11:17:39;;;;;;;;;3.00;3.00;;;;;;;;5248964;28;8771;-67
2023/04/20 11:20:12;;;;;;;;;4.67;4.67;;;;;;;;5248901;28;8786;-67
2023/04/20 11:22:43;;;;;;;;;0.00;0.00;;;;;;;;5243037;28;11445;-67
2023/04/20 11:25:14;;;;;;;;;5.00;5.00;;;;;;;;5211432;28;8805;-68
2023/04/20 11:27:45;;;;;;;;;2.00;1.67;;;;;;;;5235950;28;8799;-68
2023/04/20 11:30:16;;;;;;;;;4.33;4.33;;;;;;;;5249748;28;11439;-67
2023/04/20 11:32:52;;;;;;;;;4.00;4.00;;;;;;;;5231991;28;8787;-68
2023/04/20 11:35:23;;;;;;;;;5.25;5.25;;;;;;;;5221458;28;11427;-67
2023/04/20 11:37:56;;;;;;;;;7.00;7.00;;;;;;;;5228097;28;8816;-68
2023/04/20 11:40:27;;;;;;;;;9.25;9.25;;;;;;;;5228018;28;8806;-68
2023/04/20 11:42:59;;;;;;;;;8.00;8.00;;;;;;;;5229546;28;8859;-67
2023/04/20 11:45:33;;;;;;;;;10.50;10.50;;;;;;;;5229167;28;8805;-67
2023/04/20 11:48:04;;;;;;;;;14.00;14.00;;;;;;;;5227820;28;9518;-67
2023/04/20 11:50:36;;;;;;;;;9.50;9.50;;;;;;;;5227724;28;8770;-67
2023/04/20 11:53:25;;;;;;;;;5.75;5.75;;;;;;;;5228336;28;8807;-67
2023/04/20 11:55:56;;;;;;;;;4.00;4.00;;;;;;;;5211037;28;8785;-67
2023/04/20 11:58:27;;;;;;;;;3.67;3.67;;;;;;;;5211056;28;12164;-67
2023/04/20 12:00:58;;;;;;;;;4.00;4.00;;;;;;;;5194631;28;8770;-67
2023/04/20 12:03:30;;;;;;;;;7.00;7.00;;;;;;;;5210965;28;8789;-67
2023/04/20 12:06:01;;;;;;;;;5.00;5.00;;;;;;;;5228662;28;9006;-67
2023/04/20 12:08:32;;;;;;;;;5.00;5.00;;;;;;;;5210991;28;8777;-67
2023/04/20 12:11:21;;;;;;;;;1.67;1.67;;;;;;;;5228973;28;9543;-67
2023/04/20 12:13:53;;;;;;;;;8.25;8.25;;;;;;;;5227375;28;8804;-67
2023/04/20 12:16:24;;;;;;;;;8.25;8.25;;;;;;;;5210720;28;8804;-67
2023/04/20 12:18:55;;;;;;;;;4.67;4.67;;;;;;;;5227317;28;8777;-67
2023/04/20 12:21:26;;;;;;;;;4.50;4.50;;;;;;;;5208972;28;11408;-67
2023/04/20 12:23:57;;;;;;;;;2.75;2.75;;;;;;;;5227205;28;8916;-67
2023/04/20 12:26:28;;;;;;;;;4.00;4.00;;;;;;;;5226845;28;8774;-67
2023/04/20 12:28:58;;;;;;;;;3.00;3.00;;;;;;;;5227216;28;8816;-69
2023/04/20 12:31:29;;;;;;;;;2.00;2.00;;;;;;;;5227692;28;9517;-69
2023/04/20 12:34:00;;;;;;;;;6.00;6.00;;;;;;;;5223976;28;8818;-68
2023/04/20 12:36:50;;;;;;;;;5.00;5.00;;;;;;;;5237025;28;8801;-69
2023/04/20 12:39:21;;;;;;;;;5.33;5.33;;;;;;;;5246333;28;8791;-69
2023/04/20 12:41:52;;;;;;;;;3.25;3.25;;;;;;;;5249768;28;12095;-69
2023/04/20 12:44:22;;;;;;;;;3.00;3.00;;;;;;;;5247336;28;8900;-69
2023/04/20 12:46:53;;;;;;;;;4.67;4.67;;;;;;;;5247631;28;8886;-69
2023/04/20 12:49:24;;;;;;;;;7.33;7.33;;;;;;;;5254795;28;8885;-69
2023/04/20 12:51:55;;;;;;;;;6.50;6.50;;;;;;;;5248859;28;8799;-67
2023/04/20 12:54:26;;;;;;;;;5.33;5.33;;;;;;;;5226508;28;8794;-66
2023/04/20 12:56:57;;;;;;;;;5.00;5.00;;;;;;;;5237874;28;11511;-67
2023/04/20 12:59:28;;;;;;;;;3.67;3.67;;;;;;;;5225840;28;8805;-67
2023/04/20 13:01:59;;;;;;;;;4.00;4.00;;;;;;;;5193089;28;8805;-67
2023/04/20 13:04:30;;;;;;;;;3.25;3.25;;;;;;;;5227426;28;8825;-66
2023/04/20 13:07:01;;;;;;;;;3.67;3.67;;;;;;;;5226256;28;8797;-67
2023/04/20 13:09:32;;;;;;;;;2.25;2.25;;;;;;;;5227096;28;8820;-66
2023/04/20 13:12:03;;;;;;;;;2.75;2.75;;;;;;;;5232683;28;8831;-67
2023/04/20 13:14:34;;;;;;;;;19.40;19.00;;;;;;;;5246947;28;8822;-67
2023/04/20 13:17:05;;;;;;;;;20.80;20.80;;;;;;;;5246645;28;8807;-67
2023/04/20 13:19:55;;;;;;;;;20.20;17.40;;;;;;;;5247018;28;8779;-66
2023/04/20 13:22:26;;;;;;;;;16.00;15.50;;;;;;;;5213517;28;8787;-67
2023/04/20 13:24:57;;;;;;;;;18.00;18.00;;;;;;;;5214287;28;9575;-67
2023/04/20 13:27:28;;;;;;;;;10.33;10.33;;;;;;;;5228990;28;8783;-68
2023/04/20 13:29:59;;;;;;;;;9.50;8.75;;;;;;;;5239886;28;11475;-68
2023/04/20 13:32:31;;;;;;;;;6.50;6.50;;;;;;;;5239288;28;8812;-68
2023/04/20 13:35:02;;;;;;;;;5.75;5.75;;;;;;;;5247761;28;8853;-68
2023/04/20 13:37:33;;;;;;;;;59.00;45.60;;;;;;;;5224557;28;8797;-67
2023/04/20 13:40:05;;;;;;;;;35.00;32.40;;;;;;;;5225385;28;8798;-69
2023/04/20 13:42:36;;;;;;;;;11.00;11.00;;;;;;;;5226780;28;8855;-68
2023/04/20 13:45:26;;;;;;;;;6.75;6.75;;;;;;;;5211118;28;8868;-67
2023/04/20 13:47:57;;;;;;;;;6.75;6.75;;;;;;;;5224037;28;8789;-68
2023/04/20 13:50:28;;;;;;;;;6.33;6.33;;;;;;;;5225356;28;8850;-69
2023/04/20 13:53:01;;;;;;;;;10.67;10.67;;;;;;;;5243724;28;11501;-68
2023/04/20 13:55:32;;;;;;;;;7.00;7.00;;;;;;;;5225938;28;11545;-67
2023/04/20 13:58:03;;;;;;;;;9.00;9.00;;;;;;;;5207656;28;8816;-68
2023/04/20 14:00:34;;;;;;;;;8.25;8.00;;;;;;;;5224617;28;11594;-68
2023/04/20 14:03:07;;;;;;;;;4.75;4.75;;;;;;;;5226043;28;8782;-68
2023/04/20 14:05:58;;;;;;;;;11.25;10.50;;;;;;;;5225908;28;8802;-69
2023/04/20 14:08:47;;;;;;;;;25.80;25.80;;;;;;;;5227984;28;8826;-69
2023/04/20 14:11:18;;;;;;;;;25.20;25.20;;;;;;;;5240468;28;8802;-69
2023/04/20 14:13:50;;;;;;;;;17.75;16.00;;;;;;;;5225973;28;8779;-68
2023/04/20 14:16:23;;;;;;;;;15.80;15.80;;;;;;;;5226270;28;11502;-69
2023/04/20 14:18:54;;;;;;;;;11.00;11.00;;;;;;;;5208015;28;8786;-68
2023/04/20 14:21:26;;;;;;;;;12.67;12.67;;;;;;;;5225975;28;8788;-68
2023/04/20 14:23:57;;;;;;;;;12.75;12.50;;;;;;;;5224643;28;8789;-69
2023/04/20 14:26:28;;;;;;;;;14.25;14.25;;;;;;;;5230610;28;9485;-68
2023/04/20 14:29:17;;;;;;;;;9.00;9.00;;;;;;;;5243530;28;8920;-68
2023/04/20 14:31:48;;;;;;;;;14.00;14.00;;;;;;;;5244874;28;8909;-68
2023/04/20 14:34:19;;;;;;;;;13.00;13.00;;;;;;;;5243337;28;8965;-67
2023/04/20 14:36:50;;;;;;;;;13.50;13.50;;;;;;;;5244413;28;11479;-68
2023/04/20 14:39:22;;;;;;;;;20.33;20.33;;;;;;;;5229723;28;8797;-68
2023/04/20 14:42:13;;;;;;;;;18.25;18.25;;;;;;;;5243250;28;8799;-67
2023/04/20 14:44:43;;;;;;;;;43.60;37.60;;;;;;;;5241456;28;8862;-66
2023/04/20 14:47:15;;;;;;;;;24.00;23.25;;;;;;;;5239860;28;8794;-66
2023/04/20 14:49:46;;;;;;;;;16.67;16.67;;;;;;;;5223497;28;8808;-66
2023/04/20 14:52:17;;;;;;;;;5.67;5.67;;;;;;;;5223462;28;8778;-69
2023/04/20 14:54:48;;;;;;;;;19.75;19.50;;;;;;;;5223844;28;8947;-66
2023/04/20 14:57:19;;;;;;;;;27.33;27.33;;;;;;;;5228273;28;8818;-68
2023/04/20 14:59:50;;;;;;;;;24.00;23.25;;;;;;;;5238840;28;9598;-67
2023/04/20 15:02:39;;;;;;;;;36.40;32.80;;;;;;;;5236498;28;8811;-67
2023/04/20 15:05:10;;;;;;;;;45.50;38.00;;;;;;;;5246252;28;8814;-66
2023/04/20 15:07:41;;;;;;;;;23.33;23.00;;;;;;;;5243564;28;11476;-66
2023/04/20 15:10:12;;;;;;;;;27.75;27.50;;;;;;;;5245966;28;8876;-67
2023/04/20 15:12:43;;;;;;;;;25.75;25.50;;;;;;;;5233077;28;8853;-67
2023/04/20 15:15:14;;;;;;;;;22.25;22.25;;;;;;;;5225398;28;8799;-67
2023/04/20 15:18:04;;;;;;;;;22.25;20.75;;;;;;;;5222871;28;8817;-69
2023/04/20 15:20:35;;;;;;;;;24.80;24.80;;;;;;;;5225108;28;9513;-68
2023/04/20 15:23:06;;;;;;;;;33.00;30.50;;;;;;;;5244098;28;8825;-67